Terminal Aerodrome Forecast
Issued by NWS

Home | Current Version | Previous Version | Text Only | Print | Product List | Glossary On
Versions: 1 2 3 4 5 6 7 8 9 10 11 12 13 14 15
053
FTUS44 KLIX 251128
TAFMSY
TAF
KMSY 251128Z 2512/2612 30004KT P6SM SCT020 BKN250
     FM251400 14007KT P6SM VCTS BKN030CB BKN080
     FM251600 VRB10G15KT 5SM TSRA BKN030CB OVC090
     FM252200 14007KT P6SM VCTS SCT030CB BKN100
     FM260800 VRB03KT P6SM SCT020 BKN150=

USA.gov is the U.S. government's official web portal to all federal, state and local government web resources and services.